熊本空港の過去48時間の天気

熊本空港 (Kumamoto)

現在時刻: 5/28 13:45 JST (5/28 04:45 UTC) 以下の時間は現地時間です。

過去48時間のMETAR気象情報
時間 風向 風速(m/s) 視程 気温(℃) 湿度(%) 気圧(hPa) 天気現象
28 13:00 南南西 4 10km以上 25 44 1010
28 12:00 西南西 3 10km以上 24 47 1010
28 11:00 不定 2 10km以上 23 47 1010
28 10:00 不定 2 10km以上 22 57 1010
28 09:00 不定 1 10km以上 20 73 1010
28 08:00 西南西 2 6000m 19 83 1011
28 07:00 南南西 2 5000m 18 88 1010 もや
27 21:00 南南西 2 10km以上 20 83 1008
27 20:00 2 10km以上 21 73 1008
27 19:00 2 10km以上 22 69 1007
27 18:00 南南西 2 10km以上 24 57 1006
27 17:00 南西 5 10km以上 25 54 1006
27 16:00 南西 3 10km以上 26 51 1006
27 15:00 西南西 3 10km以上 25 54 1006
27 14:00 南西 3 10km以上 25 57 1007
27 13:00 不定 2 10km以上 26 54 1007
27 12:00 西北西 3 10km以上 24 57 1008
27 11:00 不定 2 10km以上 22 57 1008
27 10:00 不定 2 10km以上 22 53 1009
27 09:00 不定 1 10km以上 20 68 1009
27 08:00 不定 1 6000m 18 94 1009
27 07:00 不定 1 2500m 17 100 1009 もや 散在した霧
RJFT 280400Z 21007KT 170V320 9999 FEW040 25/12 Q1010
RJFT 280300Z 25005KT 210V310 9999 FEW040 24/12 Q1010
RJFT 280200Z VRB03KT 9999 FEW040 SCT170 23/11 Q1010
RJFT 280100Z VRB03KT 9999 FEW030 SCT/// 22/13 Q1010
RJFT 280000Z VRB02KT 9999 FEW020 SCT/// 20/15 Q1010
RJFT 272300Z 25003KT 200V290 6000 SCT012 BKN015 19/16 Q1011
RJFT 272200Z 21003KT 5000 BR FEW007 BKN010 18/16 Q1010
RJFT 271200Z 21004KT 180V240 9999 SCT030 SCT160 BKN/// 20/17 Q1008
RJFT 271100Z 18003KT 130V210 CAVOK 21/16 Q1008
RJFT 271000Z 18003KT 150V210 CAVOK 22/16 Q1007
RJFT 270900Z 21004KT 190V250 9999 FEW040 SCT150 BKN/// 24/15 Q1006
RJFT 270800Z 22009KT 190V250 9999 FEW040 BKN/// 25/15 Q1006
RJFT 270700Z 23006KT 180V270 9999 FEW040 BKN/// 26/15 Q1006
RJFT 270600Z 24006KT 180V260 9999 FEW040 BKN/// 25/15 Q1006
RJFT 270500Z 22006KT 180V280 9999 FEW040 BKN/// 25/16 Q1007
RJFT 270400Z VRB04KT 9999 FEW040 SCT150 BKN/// 26/16 Q1007
RJFT 270300Z 30006KT 9999 FEW040 SCT150 BKN/// 24/15 Q1008
RJFT 270200Z VRB03KT 9999 FEW035 BKN/// 22/13 Q1008
RJFT 270100Z VRB03KT 9999 FEW015 BKN/// 22/12 Q1009
RJFT 270000Z VRB01KT 9999 FEW013 BKN/// 20/14 Q1009
RJFT 262300Z VRB02KT 6000 FEW005 SCT150 BKN/// 18/17 Q1009
RJFT 262200Z VRB02KT 2500 BR BCFG FEW001 SCT004 BKN150 17/17 Q1009